Time;durP1;ratioP1;P1;durP2;ratioP2;P2;SDS_P1;SDS_P2;PMS_P1;PMS_P2;Temp;Humidity;BMP_temperature;BMP_pressure;BME280_temperature;BME280_humidity;BME280_pressure;Samples;Min_cycle;Max_cycle;Signal;HPM_P1;HPM_P2
2023/09/02 00:00:52;;;;;;;1.50;1.40;;;22.30;87.50;;;;;;5075908;28;20246;-72
2023/09/02 00:03:18;;;;;;;3.07;1.57;;;22.30;87.60;;;;;;5072247;28;20613;-73
2023/09/02 00:05:48;;;;;;;3.57;1.50;;;22.30;87.50;;;;;;5077516;28;20251;-73
2023/09/02 00:08:15;;;;;;;2.87;1.77;;;22.30;87.50;;;;;;5089528;28;20303;-71
2023/09/02 00:10:45;;;;;;;3.80;1.67;;;22.40;87.50;;;;;;5090023;28;20222;-72
2023/09/02 00:13:16;;;;;;;2.57;1.67;;;22.30;87.40;;;;;;5065635;28;20297;-72
2023/09/02 00:15:46;;;;;;;2.43;1.40;;;22.30;87.40;;;;;;5080705;28;20288;-71
2023/09/02 00:18:15;;;;;;;2.27;1.67;;;22.50;87.70;;;;;;5090429;28;20287;-72
2023/09/02 00:20:45;;;;;;;2.13;1.57;;;22.40;87.60;;;;;;5091732;28;20205;-72
2023/09/02 00:23:14;;;;;;;2.73;1.57;;;22.40;87.50;;;;;;5077552;28;20231;-73
2023/09/02 00:25:47;;;;;;;2.37;1.93;;;22.30;87.40;;;;;;5074257;28;20227;-73
2023/09/02 00:28:21;;;;;;;2.83;1.83;;;22.30;87.30;;;;;;5084428;28;20240;-72
2023/09/02 00:30:48;;;;;;;2.53;1.50;;;22.30;87.30;;;;;;5083530;28;20207;-72
2023/09/02 00:33:18;;;;;;;1.50;1.40;;;22.30;87.30;;;;;;5080543;28;20237;-72
2023/09/02 00:35:45;;;;;;;2.13;1.93;;;22.30;87.40;;;;;;5086897;28;20682;-72
2023/09/02 00:38:15;;;;;;;2.47;1.50;;;22.30;87.20;;;;;;5077141;28;20237;-72
2023/09/02 00:41:00;;;;;;;1.70;1.60;;;22.20;87.20;;;;;;5077966;28;20196;-72
2023/09/02 00:43:32;;;;;;;2.17;1.37;;;22.20;87.20;;;;;;5081658;28;20193;-72
2023/09/02 00:46:03;;;;;;;2.37;1.40;;;22.10;87.00;;;;;;5078348;28;20303;-72
2023/09/02 00:48:31;;;;;;;2.10;1.43;;;22.10;87.00;;;;;;5087241;28;20575;-72
2023/09/02 00:51:01;;;;;;;3.00;1.70;;;22.10;87.00;;;;;;5075584;28;20235;-72
2023/09/02 00:53:28;;;;;;;2.70;2.03;;;22.00;86.90;;;;;;5087112;28;20312;-72
2023/09/02 00:55:59;;;;;;;1.90;1.70;;;22.00;87.00;;;;;;5082739;28;20632;-72
2023/09/02 00:58:28;;;;;;;2.23;2.03;;;22.00;87.20;;;;;;5092808;28;20224;-71
2023/09/02 01:01:00;;;;;;;3.10;1.87;;;21.90;87.10;;;;;;5087052;28;20220;-72
2023/09/02 01:03:32;;;;;;;3.87;1.60;;;21.90;87.20;;;;;;5073483;28;20209;-73
2023/09/02 01:06:02;;;;;;;2.50;1.80;;;21.90;87.20;;;;;;5083876;28;20274;-72
2023/09/02 01:11:33;;;;;;;1.70;1.60;;;21.70;87.40;;;;;;5024804;28;20222;-73
2023/09/02 01:14:04;;;;;;;3.37;1.77;;;21.80;87.40;;;;;;5076642;28;20629;-72
2023/09/02 01:16:35;;;;;;;1.80;1.57;;;21.80;87.40;;;;;;5085066;28;20232;-72
2023/09/02 01:19:08;;;;;;;2.27;1.70;;;21.80;87.40;;;;;;5079868;28;20216;-72
2023/09/02 01:21:59;;;;;;;2.57;1.70;;;21.80;87.30;;;;;;5078532;28;20296;-73
2023/09/02 01:24:48;;;;;;;1.93;1.77;;;21.70;87.40;;;;;;5079212;28;20303;-72
2023/09/02 01:27:23;;;;;;;2.13;1.80;;;21.70;87.30;;;;;;5071960;28;20213;-72
2023/09/02 01:30:00;;;;;;;1.60;1.50;;;21.70;87.20;;;;;;5078262;28;20228;-73
2023/09/02 01:32:32;;;;;;;2.47;2.10;;;21.70;87.50;;;;;;5066327;28;20280;-73
2023/09/02 01:35:06;;;;;;;2.37;1.70;;;21.70;87.60;;;;;;5072746;28;20284;-73
2023/09/02 01:37:42;;;;;;;3.00;1.70;;;21.70;87.90;;;;;;5074108;28;20224;-72
2023/09/02 01:40:21;;;;;;;3.20;1.83;;;21.70;88.20;;;;;;5078752;28;20699;-72
2023/09/02 01:42:50;;;;;;;3.00;1.70;;;21.70;88.20;;;;;;5072834;28;20615;-71
2023/09/02 01:45:19;;;;;;;4.97;2.20;;;21.70;88.00;;;;;;5072506;28;20269;-72
2023/09/02 01:47:50;;;;;;;2.50;1.80;;;21.70;87.90;;;;;;5078670;28;20197;-72
2023/09/02 01:50:21;;;;;;;5.37;1.83;;;21.60;87.90;;;;;;5072359;28;20245;-72
2023/09/02 01:52:49;;;;;;;2.57;1.53;;;21.60;87.90;;;;;;5071698;28;20292;-72
2023/09/02 01:55:16;;;;;;;3.87;1.87;;;21.60;87.90;;;;;;5072362;28;20259;-72
2023/09/02 01:57:47;;;;;;;2.53;1.90;;;21.60;88.00;;;;;;5080736;28;20370;-72
2023/09/02 02:00:16;;;;;;;2.50;1.53;;;21.60;88.10;;;;;;5087633;28;20231;-72
2023/09/02 02:02:46;;;;;;;3.43;1.80;;;21.50;88.00;;;;;;5076507;28;20570;-73
2023/09/02 02:05:18;;;;;;;3.30;1.70;;;21.60;88.20;;;;;;5086771;28;20228;-74
2023/09/02 02:07:53;;;;;;;2.00;1.90;;;21.60;88.30;;;;;;5072629;28;20615;-73
2023/09/02 02:10:24;;;;;;;2.40;1.80;;;21.50;88.10;;;;;;5073237;28;20299;-73
2023/09/02 02:13:01;;;;;;;3.33;1.87;;;21.60;88.20;;;;;;5061433;28;20661;-73
2023/09/02 02:15:47;;;;;;;4.17;1.90;;;21.50;88.10;;;;;;5057728;28;20200;-73
2023/09/02 02:18:14;;;;;;;1.60;1.30;;;21.50;88.30;;;;;;5071644;28;20737;-73
2023/09/02 02:20:51;;;;;;;2.50;1.70;;;21.50;87.90;;;;;;5080408;28;20574;-73
2023/09/02 02:23:19;;;;;;;3.40;1.97;;;21.50;88.20;;;;;;5069113;28;20204;-72
2023/09/02 02:25:49;;;;;;;2.33;1.70;;;21.50;88.00;;;;;;5072141;28;20731;-72
2023/09/02 02:28:16;;;;;;;3.30;1.80;;;21.50;88.20;;;;;;5080846;28;20303;-72
2023/09/02 02:30:47;;;;;;;4.53;2.30;;;21.50;88.10;;;;;;5073682;28;20664;-73
2023/09/02 02:33:17;;;;;;;2.23;2.03;;;21.50;88.30;;;;;;5068506;28;20209;-73
2023/09/02 02:35:46;;;;;;;2.27;1.70;;;21.50;88.20;;;;;;5073497;28;20305;-73
2023/09/02 02:38:13;;;;;;;2.53;1.70;;;21.50;88.40;;;;;;5080423;28;20297;-73
2023/09/02 02:40:44;;;;;;;2.63;1.70;;;21.40;88.10;;;;;;5066844;28;20284;-72
2023/09/02 02:43:13;;;;;;;1.97;1.70;;;21.40;88.40;;;;;;5081902;28;20301;-73
2023/09/02 02:45:43;;;;;;;4.40;1.90;;;21.50;88.60;;;;;;5071735;28;20206;-73
2023/09/02 02:48:15;;;;;;;2.67;2.40;;;21.40;88.20;;;;;;5071972;28;20217;-73
2023/09/02 02:50:44;;;;;;;4.13;2.00;;;21.40;88.20;;;;;;5079362;28;20219;-73
2023/09/02 02:53:14;;;;;;;3.53;1.83;;;21.40;88.10;;;;;;5076103;28;20216;-73
2023/09/02 02:55:42;;;;;;;2.87;1.67;;;21.40;88.90;;;;;;5069977;28;20718;-73
2023/09/02 02:58:12;;;;;;;3.60;1.73;;;21.40;88.20;;;;;;5082597;28;20677;-72
2023/09/02 03:03:47;;;;;;;2.60;2.20;;;21.40;88.80;;;;;;5057235;28;20209;-72
2023/09/02 03:06:17;;;;;;;4.00;1.90;;;21.40;88.50;;;;;;5080280;28;20210;-73
2023/09/02 03:08:44;;;;;;;2.37;1.83;;;21.40;88.60;;;;;;5086802;28;20583;-73
2023/09/02 03:11:14;;;;;;;2.20;1.80;;;21.40;88.40;;;;;;5071341;28;20278;-73
2023/09/02 03:13:44;;;;;;;2.37;2.13;;;21.40;88.50;;;;;;5074897;28;20649;-71
2023/09/02 03:16:10;;;;;;;3.57;2.00;;;21.40;88.60;;;;;;5072264;28;20314;-72
2023/09/02 03:18:37;;;;;;;1.53;1.43;;;21.40;88.60;;;;;;5072077;28;20205;-73
2023/09/02 03:21:09;;;;;;;2.63;1.80;;;21.40;88.50;;;;;;5083864;28;20254;-72
2023/09/02 03:24:11;;;;;;;2.27;2.07;;;21.40;88.80;;;;;;5072379;28;20229;-72
